createdAt,value
2022-08-10T00:01:52.475Z,20.07
2022-08-10T00:04:22.087Z,19.99
2022-08-10T00:06:50.408Z,19.96
2022-08-10T00:09:16.897Z,19.94
2022-08-10T00:11:43.558Z,20.00
2022-08-10T00:14:10.033Z,19.81
2022-08-10T00:16:36.530Z,19.69
2022-08-10T00:19:03.009Z,19.72
2022-08-10T00:21:29.456Z,19.67
2022-08-10T00:23:55.956Z,19.58
2022-08-10T00:26:22.725Z,19.55
2022-08-10T00:28:49.214Z,19.52
2022-08-10T00:31:15.685Z,19.46
2022-08-10T00:33:42.148Z,19.41
2022-08-10T00:36:08.719Z,19.39
2022-08-10T00:38:37.113Z,19.31
2022-08-10T00:41:04.258Z,19.25
2022-08-10T00:43:30.892Z,19.15
2022-08-10T00:45:59.143Z,19.08
2022-08-10T00:48:28.410Z,19.03
2022-08-10T00:50:55.146Z,19.03
2022-08-10T00:53:21.829Z,18.95
2022-08-10T00:57:12.604Z,18.91
2022-08-10T00:58:38.537Z,18.83
2022-08-10T01:01:06.419Z,18.75
2022-08-10T01:04:57.229Z,18.50
2022-08-10T01:06:45.956Z,18.53
2022-08-10T01:09:33.739Z,18.44
2022-08-10T01:12:38.646Z,18.37
2022-08-10T01:15:03.747Z,18.28
2022-08-10T01:17:50.896Z,18.27
2022-08-10T01:20:30.139Z,18.13
2022-08-10T01:23:19.552Z,18.15
2022-08-10T01:26:31.112Z,18.24
2022-08-10T01:29:01.234Z,18.14
2022-08-10T01:31:32.459Z,18.15
2022-08-10T01:34:05.247Z,18.11
2022-08-10T01:36:40.740Z,18.07
2022-08-10T01:39:11.160Z,18.05
2022-08-10T01:41:46.188Z,18.00
2022-08-10T01:44:20.014Z,17.92
2022-08-10T01:46:53.020Z,17.89
2022-08-10T01:49:25.087Z,17.88
2022-08-10T01:51:55.056Z,17.80
2022-08-10T01:54:24.777Z,17.83
2022-08-10T01:56:55.793Z,17.76
2022-08-10T01:59:33.793Z,17.75
2022-08-10T02:02:03.930Z,17.67
2022-08-10T02:04:34.517Z,17.67
2022-08-10T02:07:02.775Z,17.61
2022-08-10T02:09:33.787Z,17.57
2022-08-10T02:12:14.079Z,17.52
2022-08-10T02:15:06.296Z,17.53
2022-08-10T02:17:59.193Z,17.44
2022-08-10T02:20:31.578Z,17.40
2022-08-10T02:23:02.760Z,17.39
2022-08-10T02:25:40.669Z,17.32
2022-08-10T02:28:12.809Z,17.31
2022-08-10T02:30:55.895Z,17.24
2022-08-10T02:33:26.821Z,17.21
2022-08-10T02:35:55.964Z,17.18
2022-08-10T02:38:59.863Z,17.17
2022-08-10T02:45:15.316Z,17.17
2022-08-10T02:45:20.596Z,17.10
2022-08-10T02:47:52.804Z,17.10
2022-08-10T02:50:41.647Z,17.07
2022-08-10T02:53:55.500Z,17.02
2022-08-10T02:56:23.961Z,16.96
2022-08-10T02:59:03.803Z,16.89
2022-08-10T03:01:36.731Z,16.87
2022-08-10T03:04:07.709Z,16.82
2022-08-10T03:06:43.678Z,16.81
2022-08-10T03:09:15.187Z,16.75
2022-08-10T03:12:34.955Z,16.78
2022-08-10T03:14:31.691Z,16.78
2022-08-10T03:17:01.444Z,16.70
2022-08-10T03:20:34.466Z,16.71
2022-08-10T03:22:19.224Z,16.66
2022-08-10T03:24:46.749Z,16.64
2022-08-10T03:27:15.284Z,16.61
2022-08-10T03:30:28.563Z,16.58
2022-08-10T03:32:30.983Z,16.54
2022-08-10T03:34:59.565Z,16.57
2022-08-10T03:37:27.547Z,16.57
2022-08-10T03:39:57.253Z,16.56
2022-08-10T03:42:25.679Z,16.53
2022-08-10T03:44:53.005Z,16.58
2022-08-10T03:47:20.592Z,16.56
2022-08-10T03:49:48.968Z,16.61
2022-08-10T03:52:17.594Z,16.58
2022-08-10T03:54:44.732Z,16.58
2022-08-10T03:57:12.276Z,16.59
2022-08-10T03:59:39.347Z,16.59
2022-08-10T04:02:43.350Z,16.59
2022-08-10T04:04:53.159Z,16.66
2022-08-10T04:07:19.785Z,16.60
2022-08-10T04:09:55.401Z,16.72
2022-08-10T04:12:23.834Z,16.77
2022-08-10T04:14:52.835Z,16.70
2022-08-10T04:18:00.186Z,16.66
2022-08-10T04:20:25.220Z,16.69
2022-08-10T04:22:53.702Z,16.69
2022-08-10T04:25:22.618Z,16.81
2022-08-10T04:27:50.226Z,16.83
2022-08-10T04:30:17.556Z,16.74
2022-08-10T04:32:47.462Z,16.82
2022-08-10T04:35:16.782Z,17.02
2022-08-10T04:37:47.536Z,16.95
2022-08-10T04:40:28.836Z,17.09
2022-08-10T04:43:01.342Z,17.21
2022-08-10T04:45:49.795Z,17.39
2022-08-10T04:48:41.044Z,17.49
2022-08-10T04:51:03.908Z,17.52
2022-08-10T04:53:30.863Z,17.73
2022-08-10T04:55:57.314Z,17.85
2022-08-10T04:58:23.986Z,17.93
2022-08-10T05:00:50.716Z,18.20
2022-08-10T05:03:17.294Z,18.34
2022-08-10T05:05:43.744Z,18.53
2022-08-10T05:08:10.224Z,18.71
2022-08-10T05:10:36.827Z,18.87
2022-08-10T05:13:03.338Z,18.92
2022-08-10T05:15:29.870Z,19.13
2022-08-10T05:18:08.544Z,19.26
2022-08-10T05:20:36.777Z,19.31
2022-08-10T05:23:03.615Z,19.54
2022-08-10T05:25:32.980Z,19.60
2022-08-10T05:28:06.762Z,19.75
2022-08-10T05:30:34.196Z,19.93
2022-08-10T05:33:05.045Z,20.04
2022-08-10T05:35:52.372Z,20.16
2022-08-10T05:38:22.879Z,20.30
2022-08-10T05:40:49.970Z,20.42
2022-08-10T05:43:18.429Z,20.56
2022-08-10T05:46:19.851Z,20.66
2022-08-10T05:48:54.899Z,20.72
2022-08-10T05:51:20.650Z,20.99
2022-08-10T05:54:04.299Z,20.90
2022-08-10T05:56:55.284Z,20.98
2022-08-10T06:00:11.040Z,21.07
2022-08-10T06:02:31.156Z,21.25
2022-08-10T06:05:03.680Z,21.21
2022-08-10T06:07:31.166Z,21.35
2022-08-10T06:10:00.331Z,21.63
2022-08-10T06:12:30.898Z,21.55
2022-08-10T06:15:05.748Z,21.45
2022-08-10T06:17:37.454Z,21.63
2022-08-10T06:20:04.784Z,21.60
2022-08-10T06:22:34.041Z,21.52
2022-08-10T06:27:50.735Z,21.85
2022-08-10T06:30:20.164Z,21.98
2022-08-10T06:32:49.634Z,22.19
2022-08-10T06:35:17.478Z,22.54
2022-08-10T06:37:50.723Z,22.62
2022-08-10T06:40:18.858Z,22.43
2022-08-10T06:42:48.965Z,22.87
2022-08-10T06:45:27.607Z,22.72
2022-08-10T06:48:06.120Z,22.71
2022-08-10T06:50:45.838Z,22.93
2022-08-10T06:53:53.961Z,22.89
2022-08-10T06:56:37.445Z,23.22
2022-08-10T06:59:37.344Z,23.13
2022-08-10T07:02:08.159Z,23.04
2022-08-10T07:04:42.270Z,23.33
2022-08-10T07:07:10.897Z,23.44
2022-08-10T07:09:40.816Z,23.71
2022-08-10T07:12:09.684Z,23.58
2022-08-10T07:14:42.580Z,23.33
2022-08-10T07:17:25.483Z,23.69
2022-08-10T07:19:55.329Z,23.96
2022-08-10T07:23:05.937Z,24.21
2022-08-10T07:25:16.005Z,24.25
2022-08-10T07:28:00.370Z,24.21
2022-08-10T07:30:30.570Z,24.26
2022-08-10T07:32:58.773Z,24.68
2022-08-10T07:35:28.944Z,24.69
2022-08-10T07:37:59.991Z,24.92
2022-08-10T07:40:31.043Z,24.88
2022-08-10T07:43:00.013Z,25.23
2022-08-10T07:45:30.580Z,24.97
2022-08-10T07:48:07.965Z,24.90
2022-08-10T07:50:37.947Z,25.12
2022-08-10T07:53:07.475Z,25.44
2022-08-10T07:56:05.845Z,25.66
2022-08-10T07:58:28.886Z,25.41
2022-08-10T08:00:57.349Z,25.67
2022-08-10T08:03:28.218Z,26.03
2022-08-10T08:06:05.321Z,25.92
2022-08-10T08:08:38.160Z,25.76
2022-08-10T08:11:05.800Z,26.09
2022-08-10T08:13:33.904Z,26.00
2022-08-10T08:16:20.482Z,25.80
2022-08-10T08:19:16.535Z,26.09
2022-08-10T08:24:06.555Z,26.34
2022-08-10T08:24:31.860Z,26.08
2022-08-10T08:27:02.786Z,26.00
2022-08-10T08:29:31.405Z,26.04
2022-08-10T08:32:02.051Z,26.23
2022-08-10T08:34:31.925Z,26.56
2022-08-10T08:37:00.980Z,26.38
2022-08-10T08:39:28.218Z,26.49
2022-08-10T08:42:04.491Z,26.30
2022-08-10T08:45:00.056Z,26.54
2022-08-10T08:48:05.291Z,26.43
2022-08-10T08:50:39.894Z,26.60
2022-08-10T08:54:01.166Z,26.74
2022-08-10T08:57:22.948Z,26.76
2022-08-10T09:00:14.484Z,27.17
2022-08-10T09:03:08.899Z,26.95
2022-08-10T09:05:59.262Z,26.99
2022-08-10T09:08:38.319Z,27.19
2022-08-10T09:11:27.531Z,27.08
2022-08-10T09:14:32.510Z,27.07
2022-08-10T09:17:20.219Z,27.22
2022-08-10T09:19:50.180Z,27.23
2022-08-10T09:22:29.721Z,27.11
2022-08-10T09:25:22.750Z,27.11
2022-08-10T09:27:59.597Z,27.09
2022-08-10T09:30:34.770Z,27.19
2022-08-10T09:36:23.161Z,26.97
2022-08-10T09:36:24.974Z,27.15
2022-08-10T09:38:48.191Z,27.51
2022-08-10T09:41:41.502Z,27.17
2022-08-10T09:44:24.411Z,27.34
2022-08-10T09:48:01.636Z,27.80
2022-08-10T09:51:41.695Z,27.25
2022-08-10T09:54:07.659Z,27.13
2022-08-10T09:57:44.269Z,27.57
2022-08-10T10:00:09.237Z,27.59
2022-08-10T10:02:45.318Z,27.57
2022-08-10T10:05:33.568Z,28.17
2022-08-10T10:08:23.628Z,27.84
2022-08-10T10:11:11.740Z,28.32
2022-08-10T10:14:02.933Z,29.41
2022-08-10T10:17:00.975Z,30.34
2022-08-10T10:19:52.529Z,30.86
2022-08-10T10:22:28.327Z,29.92
2022-08-10T10:25:20.754Z,30.26
2022-08-10T10:28:09.325Z,31.08
2022-08-10T10:31:04.846Z,30.38
2022-08-10T10:34:00.954Z,30.92
2022-08-10T10:36:29.575Z,29.36
2022-08-10T10:38:59.064Z,30.02
2022-08-10T10:42:04.047Z,30.58
2022-08-10T10:44:52.695Z,30.84
2022-08-10T10:47:46.634Z,30.66
2022-08-10T10:50:19.462Z,30.98
2022-08-10T10:53:07.903Z,30.48
2022-08-10T10:55:50.025Z,30.03
2022-08-10T10:58:42.727Z,31.49
2022-08-10T11:01:21.392Z,31.34
2022-08-10T11:04:08.376Z,31.21
2022-08-10T11:07:03.083Z,29.81
2022-08-10T11:10:05.157Z,31.17
2022-08-10T11:12:57.823Z,31.17
2022-08-10T11:15:42.812Z,29.38
2022-08-10T11:18:48.232Z,30.24
2022-08-10T11:21:26.902Z,30.73
2022-08-10T11:24:42.657Z,30.12
2022-08-10T11:27:21.805Z,31.16
2022-08-10T11:30:12.812Z,31.20
2022-08-10T11:33:07.370Z,31.24
2022-08-10T11:35:52.139Z,31.24
2022-08-10T11:39:11.000Z,31.12
2022-08-10T11:42:09.499Z,31.48
2022-08-10T11:44:30.886Z,31.48
2022-08-10T11:47:04.675Z,31.49
2022-08-10T11:49:55.617Z,31.91
2022-08-10T11:52:43.487Z,31.86
2022-08-10T11:55:20.773Z,31.64
2022-08-10T11:57:54.604Z,31.37
2022-08-10T12:00:24.137Z,31.62
2022-08-10T12:02:56.543Z,31.17
2022-08-10T12:05:53.854Z,31.59
2022-08-10T12:10:09.464Z,31.71
2022-08-10T12:11:08.260Z,31.35
2022-08-10T12:14:17.739Z,32.40
2022-08-10T12:16:45.603Z,31.46
2022-08-10T12:19:19.827Z,32.22
2022-08-10T12:22:12.045Z,32.10
2022-08-10T12:24:47.082Z,31.49
2022-08-10T12:27:35.205Z,31.44
2022-08-10T12:30:06.562Z,30.80
2022-08-10T12:32:51.989Z,30.57
2022-08-10T12:35:56.053Z,31.44
2022-08-10T12:38:36.894Z,30.98
2022-08-10T12:41:44.491Z,32.34
2022-08-10T12:44:41.012Z,32.58
2022-08-10T12:47:14.955Z,31.80
2022-08-10T12:50:31.559Z,32.31
2022-08-10T12:53:15.265Z,30.97
2022-08-10T12:55:42.747Z,31.41
2022-08-10T12:58:57.603Z,30.65
2022-08-10T13:01:21.364Z,30.50
2022-08-10T13:04:23.399Z,30.92
2022-08-10T13:06:46.082Z,30.64
2022-08-10T13:09:22.076Z,31.07
2022-08-10T13:12:36.918Z,31.58
2022-08-10T13:14:48.699Z,30.49
2022-08-10T13:17:23.083Z,31.03
2022-08-10T13:19:56.003Z,30.89
2022-08-10T13:22:27.819Z,30.22
2022-08-10T13:24:58.983Z,31.12
2022-08-10T13:28:02.800Z,30.46
2022-08-10T13:30:16.750Z,29.93
2022-08-10T13:32:49.486Z,30.32
2022-08-10T13:35:19.691Z,30.44
2022-08-10T13:37:48.501Z,30.00
2022-08-10T13:40:18.863Z,29.92
2022-08-10T13:42:47.287Z,30.06
2022-08-10T13:45:18.167Z,30.01
2022-08-10T13:47:50.224Z,29.96
2022-08-10T13:50:33.187Z,29.86
2022-08-10T13:53:04.070Z,30.01
2022-08-10T13:55:48.715Z,30.37
2022-08-10T13:58:27.994Z,30.22
2022-08-10T14:00:56.453Z,30.48
2022-08-10T14:03:24.520Z,30.05
2022-08-10T14:05:53.457Z,29.90
2022-08-10T14:08:23.789Z,29.90
2022-08-10T14:11:09.773Z,29.44
2022-08-10T14:13:42.138Z,29.91
2022-08-10T14:16:11.447Z,29.50
2022-08-10T14:18:40.325Z,29.83
2022-08-10T14:21:07.319Z,29.73
2022-08-10T14:23:40.609Z,29.98
2022-08-10T14:26:11.438Z,29.81
2022-08-10T14:28:46.200Z,29.80
2022-08-10T14:31:19.816Z,30.23
2022-08-10T14:33:53.841Z,30.24
2022-08-10T14:36:39.819Z,30.48
2022-08-10T14:39:08.324Z,30.14
2022-08-10T14:42:03.192Z,29.74
2022-08-10T14:44:29.270Z,30.01
2022-08-10T14:46:59.320Z,29.77
2022-08-10T14:49:28.532Z,29.78
2022-08-10T14:52:01.083Z,29.65
2022-08-10T14:54:30.210Z,29.67
2022-08-10T14:57:11.494Z,29.81
2022-08-10T15:00:24.520Z,29.56
2022-08-10T15:02:40.473Z,29.40
2022-08-10T15:05:22.066Z,28.96
2022-08-10T15:07:59.139Z,29.14
2022-08-10T15:10:27.074Z,29.30
2022-08-10T15:12:55.509Z,29.38
2022-08-10T15:15:28.846Z,29.34
2022-08-10T15:17:57.886Z,29.27
2022-08-10T15:20:27.534Z,29.22
2022-08-10T15:23:00.003Z,29.10
2022-08-10T15:25:30.292Z,28.91
2022-08-10T15:28:05.733Z,29.24
2022-08-10T15:30:39.766Z,29.26
2022-08-10T15:34:03.496Z,29.40
2022-08-10T15:36:37.821Z,29.49
2022-08-10T15:39:12.743Z,29.31
2022-08-10T15:42:02.580Z,29.12
2022-08-10T15:44:41.453Z,29.01
2022-08-10T15:47:26.964Z,29.14
2022-08-10T15:50:02.798Z,28.99
2022-08-10T15:52:39.423Z,28.80
2022-08-10T15:55:43.219Z,28.93
2022-08-10T15:58:40.167Z,28.53
2022-08-10T16:02:12.527Z,28.82
2022-08-10T16:04:18.644Z,28.58
2022-08-10T16:07:08.759Z,28.73
2022-08-10T16:10:23.313Z,28.78
2022-08-10T16:12:42.140Z,28.75
2022-08-10T16:15:16.441Z,28.96
2022-08-10T16:17:54.851Z,29.02
2022-08-10T16:20:28.407Z,28.82
2022-08-10T16:23:04.532Z,28.96
2022-08-10T16:25:48.606Z,28.77
2022-08-10T16:28:23.714Z,28.78
2022-08-10T16:30:54.188Z,28.47
2022-08-10T16:33:54.032Z,28.51
2022-08-10T16:36:17.062Z,28.91
2022-08-10T16:38:47.464Z,28.39
2022-08-10T16:41:23.760Z,28.33
2022-08-10T16:44:04.160Z,28.25
2022-08-10T16:46:31.616Z,28.29
2022-08-10T16:49:01.160Z,28.18
2022-08-10T16:51:28.187Z,28.32
2022-08-10T16:53:58.950Z,28.07
2022-08-10T16:56:32.599Z,28.42
2022-08-10T16:59:05.007Z,28.33
2022-08-10T17:01:37.491Z,28.17
2022-08-10T17:04:10.144Z,28.28
2022-08-10T17:06:44.199Z,28.28
2022-08-10T17:09:20.152Z,28.28
2022-08-10T17:11:49.746Z,28.32
2022-08-10T17:14:21.230Z,28.03
2022-08-10T17:16:53.536Z,28.16
2022-08-10T17:19:23.483Z,28.03
2022-08-10T17:21:55.733Z,27.81
2022-08-10T17:24:30.275Z,27.99
2022-08-10T17:28:03.886Z,27.82
2022-08-10T17:29:57.702Z,27.66
2022-08-10T17:32:44.411Z,27.45
2022-08-10T17:35:22.442Z,27.47
2022-08-10T17:38:09.279Z,27.57
2022-08-10T17:40:45.871Z,27.52
2022-08-10T17:43:13.800Z,27.61
2022-08-10T17:46:02.832Z,27.54
2022-08-10T17:48:34.884Z,27.45
2022-08-10T17:51:02.910Z,27.30
2022-08-10T17:53:40.807Z,27.28
2022-08-10T17:56:10.204Z,27.08
2022-08-10T17:58:39.447Z,27.09
2022-08-10T18:01:38.587Z,26.82
2022-08-10T18:03:58.780Z,26.74
2022-08-10T18:06:27.932Z,26.73
2022-08-10T18:09:09.681Z,26.60
2022-08-10T18:11:43.465Z,26.62
2022-08-10T18:14:11.728Z,26.64
2022-08-10T18:16:41.823Z,26.51
2022-08-10T18:19:13.538Z,26.60
2022-08-10T18:21:47.221Z,26.55
2022-08-10T18:24:19.542Z,26.43
2022-08-10T18:26:49.390Z,26.30
2022-08-10T18:29:22.862Z,26.19
2022-08-10T18:31:56.717Z,26.35
2022-08-10T18:34:25.136Z,26.29
2022-08-10T18:36:52.917Z,26.19
2022-08-10T18:39:32.146Z,26.17
2022-08-10T18:42:31.168Z,26.01
2022-08-10T18:45:10.276Z,25.61
2022-08-10T18:47:58.907Z,25.77
2022-08-10T18:50:32.515Z,25.72
2022-08-10T18:53:15.662Z,25.67
2022-08-10T18:55:53.681Z,25.51
2022-08-10T18:58:53.909Z,25.52
2022-08-10T19:01:29.874Z,25.49
2022-08-10T19:04:16.155Z,25.21
2022-08-10T19:07:04.939Z,25.29
2022-08-10T19:09:47.180Z,25.30
2022-08-10T19:12:36.555Z,25.08
2022-08-10T19:15:19.050Z,25.08
2022-08-10T19:18:17.944Z,25.04
2022-08-10T19:20:53.931Z,24.95
2022-08-10T19:23:29.734Z,25.00
2022-08-10T19:26:41.621Z,24.92
2022-08-10T19:30:08.895Z,24.77
2022-08-10T19:32:24.616Z,24.70
2022-08-10T19:35:03.261Z,24.59
2022-08-10T19:38:00.419Z,24.35
2022-08-10T19:40:48.452Z,24.51
2022-08-10T19:44:00.919Z,24.44
2022-08-10T19:46:49.217Z,24.36
2022-08-10T19:49:37.643Z,24.27
2022-08-10T19:52:24.829Z,24.08
2022-08-10T19:55:05.378Z,23.96
2022-08-10T19:57:52.022Z,23.86
2022-08-10T20:00:24.242Z,23.76
2022-08-10T20:03:22.851Z,23.72
2022-08-10T20:06:13.131Z,23.53
2022-08-10T20:09:10.667Z,23.49
2022-08-10T20:11:53.734Z,23.31
2022-08-10T20:14:25.871Z,23.19
2022-08-10T20:17:01.392Z,23.22
2022-08-10T20:19:52.840Z,23.04
2022-08-10T20:22:29.023Z,22.83
2022-08-10T20:25:15.461Z,22.91
2022-08-10T20:28:00.184Z,22.76
2022-08-10T20:30:32.475Z,22.78
2022-08-10T20:33:11.121Z,22.75
2022-08-10T20:36:05.411Z,22.76
2022-08-10T20:38:40.928Z,22.73
2022-08-10T20:41:18.187Z,22.75
2022-08-10T20:44:01.880Z,22.55
2022-08-10T20:47:01.504Z,22.48
2022-08-10T20:49:52.827Z,22.32
2022-08-10T20:52:24.815Z,22.16
2022-08-10T20:54:57.953Z,22.19
2022-08-10T20:57:56.458Z,22.02
2022-08-10T21:00:30.035Z,21.96
2022-08-10T21:03:15.683Z,21.83
2022-08-10T21:05:59.087Z,21.86
2022-08-10T21:09:03.242Z,21.78
2022-08-10T21:12:18.799Z,21.71
2022-08-10T21:15:12.450Z,21.58
2022-08-10T21:18:07.642Z,21.49
2022-08-10T21:20:47.037Z,21.49
2022-08-10T21:23:16.731Z,21.36
2022-08-10T21:25:58.868Z,21.36
2022-08-10T21:28:57.940Z,21.24
2022-08-10T21:31:45.997Z,21.23
2022-08-10T21:34:37.981Z,21.19
2022-08-10T21:37:22.611Z,21.19
2022-08-10T21:40:40.470Z,21.03
2022-08-10T21:43:53.737Z,21.00
2022-08-10T21:47:10.001Z,20.94
2022-08-10T21:50:11.000Z,20.88
2022-08-10T21:53:04.469Z,20.72
2022-08-10T21:56:22.471Z,20.67
2022-08-10T21:59:29.267Z,20.60
2022-08-10T22:02:28.203Z,20.55
2022-08-10T22:05:23.134Z,20.46
2022-08-10T22:08:12.514Z,20.46
2022-08-10T22:11:02.808Z,20.43
2022-08-10T22:13:52.575Z,20.30
2022-08-10T22:18:00.793Z,20.24
2022-08-10T22:20:44.631Z,20.13
2022-08-10T22:23:41.717Z,20.14
2022-08-10T22:26:45.562Z,20.15
2022-08-10T22:30:03.194Z,20.09
2022-08-10T22:33:17.177Z,19.96
2022-08-10T22:36:35.310Z,20.01
2022-08-10T22:40:11.970Z,19.90
2022-08-10T22:42:59.618Z,19.89
2022-08-10T22:45:50.137Z,19.93
2022-08-10T22:48:35.482Z,19.93
2022-08-10T22:51:10.546Z,19.88
2022-08-10T22:54:06.593Z,19.82
2022-08-10T22:56:57.179Z,19.79
2022-08-10T22:59:32.306Z,19.82
2022-08-10T23:02:08.800Z,19.76
2022-08-10T23:04:44.295Z,19.77
2022-08-10T23:07:17.583Z,19.71
2022-08-10T23:09:46.914Z,19.74
2022-08-10T23:12:20.609Z,19.58
2022-08-10T23:14:59.273Z,19.51
2022-08-10T23:18:01.591Z,19.53
2022-08-10T23:20:30.491Z,19.40
2022-08-10T23:23:04.749Z,19.37
2022-08-10T23:25:56.127Z,19.29
2022-08-10T23:28:58.121Z,19.23
2022-08-10T23:31:13.379Z,19.21
2022-08-10T23:33:41.895Z,19.08
2022-08-10T23:36:33.925Z,19.06
2022-08-10T23:39:25.891Z,18.96
2022-08-10T23:41:53.828Z,18.95
2022-08-10T23:44:22.640Z,18.89
2022-08-10T23:46:49.819Z,18.90
2022-08-10T23:49:18.953Z,18.84
2022-08-10T23:51:55.964Z,18.82
2022-08-10T23:54:24.971Z,18.79
2022-08-10T23:56:56.600Z,18.74
2022-08-10T23:59:31.279Z,18.67
